createdAt,value
2023-10-14T00:01:15.148Z,26.27
2023-10-14T00:03:43.693Z,29.23
2023-10-14T00:06:13.172Z,18.63
2023-10-14T00:08:49.339Z,30.83
2023-10-14T00:11:17.461Z,29.85
2023-10-14T00:13:49.762Z,24.05
2023-10-14T00:16:31.016Z,30.52
2023-10-14T00:21:24.578Z,34.35
2023-10-14T00:23:53.337Z,25.42
2023-10-14T00:26:21.581Z,36.20
2023-10-14T00:28:55.621Z,24.63
2023-10-14T00:31:24.198Z,29.25
2023-10-14T00:33:53.708Z,25.98
2023-10-14T00:36:22.292Z,28.40
2023-10-14T00:38:57.069Z,28.25
2023-10-14T00:41:27.798Z,20.90
2023-10-14T00:43:55.296Z,24.70
2023-10-14T00:46:31.905Z,20.23
2023-10-14T00:49:04.132Z,22.17
2023-10-14T00:51:34.305Z,23.20
2023-10-14T00:54:03.597Z,21.13
2023-10-14T00:56:32.042Z,28.13
2023-10-14T00:59:05.584Z,21.52
2023-10-14T01:01:32.886Z,31.00
2023-10-14T01:04:19.151Z,22.05
2023-10-14T01:07:16.295Z,17.85
2023-10-14T01:09:43.040Z,20.30
2023-10-14T01:12:25.102Z,25.38
2023-10-14T01:14:53.492Z,22.25
2023-10-14T01:17:31.037Z,23.80
2023-10-14T01:20:11.760Z,20.85
2023-10-14T01:22:42.097Z,10.35
2023-10-14T01:25:14.083Z,16.98
2023-10-14T01:27:44.206Z,5.78
2023-10-14T01:30:15.484Z,5.13
2023-10-14T01:35:28.003Z,5.07
2023-10-14T01:37:59.501Z,3.03
2023-10-14T01:40:30.871Z,1.95
2023-10-14T01:45:29.145Z,7.18
2023-10-14T01:48:13.099Z,4.30
2023-10-14T01:50:40.318Z,0.90
2023-10-14T01:53:14.232Z,3.25
2023-10-14T01:55:43.929Z,2.28
2023-10-14T01:58:29.534Z,5.00
2023-10-14T02:01:25.860Z,2.70
2023-10-14T02:03:53.066Z,1.17
2023-10-14T02:06:31.580Z,1.65
2023-10-14T02:09:01.257Z,5.57
2023-10-14T02:11:34.854Z,6.15
2023-10-14T02:14:10.038Z,7.72
2023-10-14T02:16:42.298Z,3.92
2023-10-14T02:19:20.010Z,0.82
2023-10-14T02:21:48.931Z,2.80
2023-10-14T02:24:16.304Z,9.38
2023-10-14T02:26:43.023Z,4.32
2023-10-14T02:29:11.702Z,3.50
2023-10-14T02:31:38.448Z,7.63
2023-10-14T02:34:07.433Z,2.70
2023-10-14T02:36:42.993Z,6.28
2023-10-14T02:39:13.365Z,1.58
2023-10-14T02:41:41.514Z,3.10
2023-10-14T02:44:08.079Z,2.20
2023-10-14T02:46:42.544Z,4.30
2023-10-14T02:49:15.100Z,3.45
2023-10-14T02:51:46.110Z,2.30
2023-10-14T02:54:16.675Z,5.82
2023-10-14T02:56:52.701Z,6.63
2023-10-14T02:59:21.147Z,6.30
2023-10-14T03:02:07.254Z,6.32
2023-10-14T03:04:45.115Z,8.25
2023-10-14T03:07:11.644Z,8.82
2023-10-14T03:09:38.158Z,8.25
2023-10-14T03:12:06.419Z,6.68
2023-10-14T03:14:32.965Z,10.68
2023-10-14T03:16:59.522Z,6.65
2023-10-14T03:19:26.528Z,10.88
2023-10-14T03:22:02.176Z,6.55
2023-10-14T03:24:32.180Z,22.75
2023-10-14T03:27:05.300Z,11.43
2023-10-14T03:29:32.165Z,14.25
2023-10-14T03:31:58.840Z,15.70
2023-10-14T03:34:31.140Z,16.08
2023-10-14T03:37:01.828Z,16.55
2023-10-14T03:39:47.946Z,26.58
2023-10-14T03:42:17.856Z,13.10
2023-10-14T03:44:44.671Z,15.35
2023-10-14T03:47:17.764Z,13.13
2023-10-14T03:49:44.614Z,14.88
2023-10-14T03:52:13.963Z,13.93
2023-10-14T03:54:43.584Z,10.90
2023-10-14T03:57:18.466Z,17.73
2023-10-14T03:59:48.486Z,25.02
2023-10-14T04:02:25.800Z,17.40
2023-10-14T04:04:59.297Z,25.45
2023-10-14T04:07:29.732Z,29.10
2023-10-14T04:10:05.270Z,24.92
2023-10-14T04:12:38.697Z,19.08
2023-10-14T04:15:16.061Z,18.30
2023-10-14T04:17:48.322Z,22.67
2023-10-14T04:20:22.915Z,17.17
2023-10-14T04:22:53.163Z,14.55
2023-10-14T04:25:19.952Z,19.88
2023-10-14T04:27:51.465Z,24.65
2023-10-14T04:30:22.811Z,14.13
2023-10-14T04:35:33.805Z,19.55
2023-10-14T04:38:13.916Z,14.70
2023-10-14T04:40:40.608Z,23.15
2023-10-14T04:43:17.921Z,18.80
2023-10-14T04:46:16.744Z,20.75
2023-10-14T04:49:00.679Z,18.40
2023-10-14T04:51:38.065Z,27.55
2023-10-14T04:54:10.330Z,27.05
2023-10-14T04:56:37.195Z,25.55
2023-10-14T04:59:06.623Z,24.13
2023-10-14T05:01:33.847Z,20.80
2023-10-14T05:04:00.958Z,19.85
2023-10-14T05:06:30.598Z,23.05
2023-10-14T05:08:57.824Z,21.35
2023-10-14T05:11:27.099Z,24.35
2023-10-14T05:14:08.718Z,20.05
2023-10-14T05:16:54.484Z,19.80
2023-10-14T05:19:26.234Z,16.02
2023-10-14T05:22:04.987Z,19.60
2023-10-14T05:24:32.726Z,21.83
2023-10-14T05:27:02.441Z,18.83
2023-10-14T05:29:29.896Z,28.30
2023-10-14T05:32:16.302Z,26.20
2023-10-14T05:34:46.306Z,20.35
2023-10-14T05:37:13.464Z,11.75
2023-10-14T05:39:43.851Z,21.73
2023-10-14T05:42:17.597Z,14.47
2023-10-14T05:44:48.728Z,25.42
2023-10-14T05:49:45.769Z,22.73
2023-10-14T05:52:12.716Z,30.98
2023-10-14T05:54:40.244Z,32.05
2023-10-14T05:57:10.448Z,32.45
2023-10-14T05:59:38.165Z,16.10
2023-10-14T06:02:08.750Z,28.30
2023-10-14T06:04:41.021Z,19.80
2023-10-14T06:07:13.412Z,15.65
2023-10-14T06:09:40.463Z,27.23
2023-10-14T06:12:13.597Z,19.33
2023-10-14T06:14:47.419Z,25.88
2023-10-14T06:17:15.398Z,32.10
2023-10-14T06:19:44.031Z,31.48
2023-10-14T06:22:10.822Z,24.55
2023-10-14T06:24:37.784Z,19.70
2023-10-14T06:27:10.421Z,18.02
2023-10-14T06:29:37.840Z,19.42
2023-10-14T06:32:19.460Z,24.58
2023-10-14T06:34:48.632Z,30.52
2023-10-14T06:37:15.796Z,21.92
2023-10-14T06:39:43.121Z,21.38
2023-10-14T06:42:09.941Z,18.80
2023-10-14T06:44:37.463Z,23.98
2023-10-14T06:47:04.362Z,29.50
2023-10-14T06:49:34.134Z,25.17
2023-10-14T06:52:01.140Z,26.75
2023-10-14T06:54:27.881Z,25.00
2023-10-14T06:56:54.593Z,27.60
2023-10-14T06:59:21.953Z,25.65
2023-10-14T07:01:48.976Z,24.08
2023-10-14T07:04:17.608Z,15.38
2023-10-14T07:06:50.528Z,17.00
2023-10-14T07:09:20.877Z,19.20
2023-10-14T07:11:48.298Z,27.23
2023-10-14T07:14:14.893Z,24.17
2023-10-14T07:16:41.690Z,25.90
2023-10-14T07:19:08.347Z,23.02
2023-10-14T07:21:35.035Z,18.30
2023-10-14T07:24:06.793Z,18.88
2023-10-14T07:26:37.992Z,15.60
2023-10-14T07:29:06.719Z,20.48
2023-10-14T07:31:34.304Z,13.70
2023-10-14T07:34:04.099Z,17.10
2023-10-14T07:36:31.329Z,17.48
2023-10-14T07:39:03.517Z,25.60
2023-10-14T07:41:30.453Z,16.38
2023-10-14T07:43:56.982Z,19.20
2023-10-14T07:46:24.344Z,11.80
2023-10-14T07:48:54.228Z,24.42
2023-10-14T07:51:29.920Z,14.60
2023-10-14T07:53:57.941Z,18.63
2023-10-14T07:56:24.815Z,20.15
2023-10-14T07:58:54.141Z,16.08
2023-10-14T08:01:24.086Z,14.07
2023-10-14T08:03:50.985Z,14.93
2023-10-14T08:06:19.138Z,12.07
2023-10-14T08:08:52.021Z,17.30
2023-10-14T08:11:18.837Z,17.00
2023-10-14T08:13:45.449Z,13.10
2023-10-14T08:16:13.483Z,15.32
2023-10-14T08:18:42.930Z,19.20
2023-10-14T08:21:12.940Z,19.75
2023-10-14T08:23:39.593Z,13.02
2023-10-14T08:26:14.080Z,10.45
2023-10-14T08:28:41.326Z,16.63
2023-10-14T08:31:09.484Z,12.20
2023-10-14T08:33:37.330Z,17.95
2023-10-14T08:36:04.344Z,12.73
2023-10-14T08:38:30.959Z,15.45
2023-10-14T08:41:04.551Z,10.07
2023-10-14T08:43:32.372Z,16.27
2023-10-14T08:46:01.357Z,14.70
2023-10-14T08:48:28.732Z,15.98
2023-10-14T08:50:58.784Z,18.88
2023-10-14T08:53:26.885Z,11.27
2023-10-14T08:55:54.257Z,14.88
2023-10-14T08:58:24.311Z,13.40
2023-10-14T09:00:52.869Z,16.13
2023-10-14T09:03:19.520Z,17.58
2023-10-14T09:05:46.104Z,23.65
2023-10-14T09:08:15.475Z,12.38
2023-10-14T09:10:43.170Z,14.88
2023-10-14T09:13:11.362Z,16.60
2023-10-14T09:15:42.483Z,20.83
2023-10-14T09:18:14.140Z,13.20
2023-10-14T09:20:41.910Z,10.43
2023-10-14T09:23:36.074Z,9.95
2023-10-14T09:26:04.107Z,11.13
2023-10-14T09:28:41.818Z,14.30
2023-10-14T09:31:10.276Z,16.35
2023-10-14T09:33:42.770Z,16.17
2023-10-14T09:36:15.684Z,18.38
2023-10-14T09:38:44.177Z,11.85
2023-10-14T09:41:15.334Z,18.08
2023-10-14T09:43:47.657Z,11.50
2023-10-14T09:46:18.321Z,11.82
2023-10-14T09:48:45.145Z,9.82
2023-10-14T09:51:14.362Z,13.48
2023-10-14T09:53:40.918Z,12.80
2023-10-14T09:56:09.476Z,15.32
2023-10-14T09:58:38.334Z,11.23
2023-10-14T10:01:06.306Z,12.07
2023-10-14T10:03:39.350Z,12.98
2023-10-14T10:06:29.014Z,14.05
2023-10-14T10:09:37.076Z,16.70
2023-10-14T10:12:09.640Z,12.13
2023-10-14T10:14:43.848Z,9.55
2023-10-14T10:17:13.959Z,11.45
2023-10-14T10:19:58.336Z,19.38
2023-10-14T10:22:24.914Z,16.38
2023-10-14T10:24:51.746Z,13.80
2023-10-14T10:27:18.477Z,12.15
2023-10-14T10:29:49.890Z,9.23
2023-10-14T10:32:22.573Z,13.80
2023-10-14T10:35:07.872Z,17.77
2023-10-14T10:37:34.908Z,12.10
2023-10-14T10:40:06.532Z,15.07
2023-10-14T10:42:33.239Z,10.93
2023-10-14T10:45:00.099Z,9.18
2023-10-14T10:47:30.786Z,14.73
2023-10-14T10:50:00.674Z,13.30
2023-10-14T10:52:31.015Z,13.83
2023-10-14T10:54:58.094Z,11.15
2023-10-14T10:57:25.934Z,10.68
2023-10-14T10:59:55.622Z,9.30
2023-10-14T11:02:22.941Z,9.70
2023-10-14T11:04:49.646Z,12.63
2023-10-14T11:07:16.645Z,10.45
2023-10-14T11:09:43.404Z,13.88
2023-10-14T11:12:11.795Z,10.80
2023-10-14T11:14:39.403Z,8.05
2023-10-14T11:17:07.115Z,6.18
2023-10-14T11:19:34.192Z,11.82
2023-10-14T11:22:03.047Z,10.00
2023-10-14T11:24:31.816Z,12.55
2023-10-14T11:26:59.736Z,14.57
2023-10-14T11:29:27.401Z,9.73
2023-10-14T11:31:55.160Z,13.07
2023-10-14T11:34:22.488Z,13.32
2023-10-14T11:36:51.625Z,10.48
2023-10-14T11:39:19.951Z,10.30
2023-10-14T11:41:47.243Z,10.98
2023-10-14T11:44:18.612Z,10.85
2023-10-14T11:49:15.250Z,11.95
2023-10-14T11:51:45.877Z,4.05
2023-10-14T11:54:13.012Z,8.75
2023-10-14T11:56:41.448Z,13.52
2023-10-14T11:59:09.224Z,11.57
2023-10-14T12:01:36.237Z,10.15
2023-10-14T12:04:03.668Z,10.63
2023-10-14T12:06:31.597Z,7.85
2023-10-14T12:08:58.448Z,7.70
2023-10-14T12:11:25.246Z,7.82
2023-10-14T12:13:52.441Z,8.73
2023-10-14T12:16:19.940Z,9.80
2023-10-14T12:18:47.556Z,11.90
2023-10-14T12:21:14.603Z,7.13
2023-10-14T12:23:41.759Z,7.57
2023-10-14T12:26:08.431Z,11.65
2023-10-14T12:28:35.603Z,11.23
2023-10-14T12:31:10.375Z,8.73
2023-10-14T12:33:40.243Z,8.98
2023-10-14T12:36:10.422Z,9.10
2023-10-14T12:38:37.428Z,14.00
2023-10-14T12:41:07.071Z,5.88
2023-10-14T12:43:40.853Z,7.70
2023-10-14T12:46:11.269Z,5.78
2023-10-14T12:48:41.467Z,10.88
2023-10-14T12:51:10.860Z,10.25
2023-10-14T12:53:37.829Z,5.07
2023-10-14T12:56:04.830Z,12.82
2023-10-14T12:58:31.566Z,9.48
2023-10-14T13:01:07.056Z,6.80
2023-10-14T13:03:36.416Z,7.05
2023-10-14T13:06:03.181Z,4.95
2023-10-14T13:08:31.757Z,6.53
2023-10-14T13:10:58.556Z,9.82
2023-10-14T13:13:25.207Z,7.50
2023-10-14T13:15:55.106Z,13.15
2023-10-14T13:18:25.106Z,9.80
2023-10-14T13:20:53.276Z,12.38
2023-10-14T13:23:20.001Z,14.95
2023-10-14T13:25:48.058Z,16.50
2023-10-14T13:28:15.209Z,16.60
2023-10-14T13:30:50.267Z,8.10
2023-10-14T13:33:17.709Z,9.68
2023-10-14T13:35:46.467Z,10.98
2023-10-14T13:38:13.761Z,7.22
2023-10-14T13:40:42.011Z,16.52
2023-10-14T13:43:15.835Z,15.43
2023-10-14T13:45:42.734Z,9.23
2023-10-14T13:48:10.057Z,13.30
2023-10-14T13:50:38.770Z,10.65
2023-10-14T13:53:18.910Z,9.05
2023-10-14T13:55:46.385Z,12.60
2023-10-14T13:58:13.520Z,8.75
2023-10-14T14:00:41.424Z,11.43
2023-10-14T14:03:12.710Z,9.70
2023-10-14T14:08:08.561Z,6.80
2023-10-14T14:10:36.643Z,14.88
2023-10-14T14:13:06.637Z,9.30
2023-10-14T14:15:33.610Z,8.70
2023-10-14T14:18:00.842Z,11.45
2023-10-14T14:20:27.648Z,10.75
2023-10-14T14:22:58.296Z,10.60
2023-10-14T14:25:28.523Z,6.85
2023-10-14T14:27:56.626Z,6.82
2023-10-14T14:30:28.560Z,7.85
2023-10-14T14:32:56.058Z,7.20
2023-10-14T14:35:27.400Z,9.02
2023-10-14T14:40:33.150Z,6.55
2023-10-14T14:43:00.495Z,11.05
2023-10-14T14:45:29.198Z,18.52
2023-10-14T14:47:58.662Z,9.85
2023-10-14T14:50:27.585Z,8.75
2023-10-14T14:52:58.446Z,15.18
2023-10-14T14:55:25.946Z,6.95
2023-10-14T14:57:54.505Z,6.00
2023-10-14T15:00:28.941Z,4.30
2023-10-14T15:02:56.682Z,6.35
2023-10-14T15:05:29.690Z,6.82
2023-10-14T15:07:56.616Z,6.30
2023-10-14T15:10:23.301Z,10.05
2023-10-14T15:12:53.384Z,8.90
2023-10-14T15:15:20.363Z,5.55
2023-10-14T15:17:51.440Z,7.00
2023-10-14T15:20:19.351Z,14.32
2023-10-14T15:22:46.716Z,10.18
2023-10-14T15:25:14.814Z,5.63
2023-10-14T15:27:44.229Z,8.48
2023-10-14T15:30:16.628Z,13.45
2023-10-14T15:32:45.135Z,7.20
2023-10-14T15:35:14.557Z,8.00
2023-10-14T15:37:48.688Z,6.65
2023-10-14T15:40:18.798Z,6.50
2023-10-14T15:42:47.769Z,4.60
2023-10-14T15:45:18.056Z,4.97
2023-10-14T15:47:47.633Z,7.57
2023-10-14T15:50:19.449Z,6.95
2023-10-14T15:52:47.478Z,4.55
2023-10-14T15:55:21.434Z,4.65
2023-10-14T15:57:50.190Z,8.05
2023-10-14T16:00:23.636Z,6.68
2023-10-14T16:02:58.673Z,6.93
2023-10-14T16:05:26.099Z,7.15
2023-10-14T16:07:55.376Z,5.45
2023-10-14T16:10:24.251Z,4.22
2023-10-14T16:12:54.120Z,13.07
2023-10-14T16:15:20.960Z,8.93
2023-10-14T16:17:51.786Z,5.53
2023-10-14T16:20:23.116Z,7.55
2023-10-14T16:22:51.578Z,8.40
2023-10-14T16:25:20.498Z,6.47
2023-10-14T16:27:47.642Z,9.25
2023-10-14T16:30:17.694Z,7.82
2023-10-14T16:32:45.583Z,8.55
2023-10-14T16:35:15.036Z,7.70
2023-10-14T16:37:42.387Z,7.63
2023-10-14T16:40:19.439Z,9.13
2023-10-14T16:43:00.775Z,7.78
2023-10-14T16:45:28.098Z,8.43
2023-10-14T16:47:56.993Z,15.30
2023-10-14T16:50:28.112Z,8.55
2023-10-14T16:55:23.173Z,6.15
2023-10-14T16:57:51.074Z,5.30
2023-10-14T17:00:22.106Z,10.38
2023-10-14T17:02:51.227Z,10.00
2023-10-14T17:05:19.571Z,6.93
2023-10-14T17:07:48.908Z,9.93
2023-10-14T17:10:16.628Z,10.40
2023-10-14T17:12:45.853Z,10.63
2023-10-14T17:15:19.394Z,12.95
2023-10-14T17:17:53.484Z,6.38
2023-10-14T17:20:24.289Z,11.63
2023-10-14T17:22:56.102Z,8.93
2023-10-14T17:25:27.904Z,7.40
2023-10-14T17:27:57.960Z,15.27
2023-10-14T17:30:30.697Z,8.23
2023-10-14T17:32:58.656Z,9.45
2023-10-14T17:35:25.377Z,8.95
2023-10-14T17:37:56.644Z,12.63
2023-10-14T17:40:28.625Z,8.10
2023-10-14T17:43:05.189Z,8.52
2023-10-14T17:45:33.600Z,6.95
2023-10-14T17:48:01.493Z,6.30
2023-10-14T17:50:32.614Z,8.45
2023-10-14T17:53:00.436Z,9.27
2023-10-14T17:55:29.927Z,7.00
2023-10-14T17:57:58.924Z,10.00
2023-10-14T18:00:44.025Z,5.65
2023-10-14T18:03:16.940Z,7.50
2023-10-14T18:05:46.524Z,8.52
2023-10-14T18:08:14.149Z,9.25
2023-10-14T18:10:40.838Z,8.57
2023-10-14T18:13:08.854Z,9.73
2023-10-14T18:15:36.397Z,10.95
2023-10-14T18:18:06.425Z,9.90
2023-10-14T18:20:34.837Z,7.53
2023-10-14T18:23:05.078Z,6.38
2023-10-14T18:25:39.833Z,7.32
2023-10-14T18:28:07.523Z,12.88
2023-10-14T18:30:43.846Z,7.78
2023-10-14T18:33:12.317Z,11.32
2023-10-14T18:35:40.298Z,8.35
2023-10-14T18:38:11.762Z,6.65
2023-10-14T18:43:05.991Z,9.80
2023-10-14T18:45:35.402Z,8.20
2023-10-14T18:48:09.704Z,6.65
2023-10-14T18:50:38.847Z,10.63
2023-10-14T18:53:09.615Z,8.13
2023-10-14T18:55:39.404Z,10.27
2023-10-14T18:58:08.571Z,13.23
2023-10-14T19:00:37.970Z,7.22
2023-10-14T19:03:05.231Z,7.13
2023-10-14T19:05:33.711Z,5.45
2023-10-14T19:08:05.104Z,9.18
2023-10-14T19:10:33.560Z,12.98
2023-10-14T19:13:01.502Z,10.18
2023-10-14T19:15:33.114Z,9.00
2023-10-14T19:18:02.255Z,10.30
2023-10-14T19:20:29.670Z,13.98
2023-10-14T19:23:08.756Z,12.60
2023-10-14T19:25:37.050Z,12.77
2023-10-14T19:28:04.879Z,7.50
2023-10-14T19:30:33.273Z,6.65
2023-10-14T19:33:01.494Z,5.95
2023-10-14T19:35:28.733Z,12.57
2023-10-14T19:37:55.561Z,7.55
2023-10-14T19:40:23.832Z,13.48
2023-10-14T19:42:54.753Z,7.82
2023-10-14T19:45:21.909Z,16.60
2023-10-14T19:47:48.638Z,21.85
2023-10-14T19:50:16.869Z,8.73
2023-10-14T19:52:45.305Z,9.95
2023-10-14T19:55:31.953Z,18.65
2023-10-14T19:58:00.413Z,11.82
2023-10-14T20:00:27.792Z,6.22
2023-10-14T20:03:01.140Z,12.65
2023-10-14T20:05:29.282Z,11.77
2023-10-14T20:08:02.622Z,11.13
2023-10-14T20:10:39.810Z,12.68
2023-10-14T20:13:07.321Z,7.85
2023-10-14T20:15:38.342Z,9.80
2023-10-14T20:18:05.804Z,8.85
2023-10-14T20:20:32.680Z,7.20
2023-10-14T20:23:02.534Z,14.40
2023-10-14T20:25:30.452Z,12.95
2023-10-14T20:28:01.188Z,11.88
2023-10-14T20:30:29.023Z,12.45
2023-10-14T20:32:57.620Z,15.68
2023-10-14T20:35:28.704Z,13.65
2023-10-14T20:37:59.171Z,12.30
2023-10-14T20:40:27.163Z,11.90
2023-10-14T20:42:53.856Z,8.60
2023-10-14T20:45:25.295Z,10.38
2023-10-14T20:47:53.495Z,14.05
2023-10-14T20:50:23.825Z,7.65
2023-10-14T20:52:52.249Z,14.90
2023-10-14T20:55:23.974Z,17.08
2023-10-14T20:58:10.990Z,10.40
2023-10-14T21:00:40.105Z,7.88
2023-10-14T21:03:12.429Z,13.98
2023-10-14T21:05:43.603Z,19.95
2023-10-14T21:10:49.393Z,8.35
2023-10-14T21:13:19.000Z,13.70
2023-10-14T21:15:46.426Z,20.38
2023-10-14T21:18:17.637Z,15.55
2023-10-14T21:23:11.762Z,13.25
2023-10-14T21:25:42.901Z,12.52
2023-10-14T21:28:12.625Z,8.82
2023-10-14T21:30:42.669Z,8.40
2023-10-14T21:33:09.392Z,15.18
2023-10-14T21:35:37.472Z,13.77
2023-10-14T21:38:04.973Z,8.05
2023-10-14T21:40:32.350Z,16.38
2023-10-14T21:42:59.888Z,8.55
2023-10-14T21:45:35.389Z,14.07
2023-10-14T21:48:03.159Z,8.18
2023-10-14T21:50:30.030Z,14.63
2023-10-14T21:52:56.614Z,15.85
2023-10-14T21:55:24.046Z,11.35
2023-10-14T21:57:52.612Z,15.57
2023-10-14T22:00:22.761Z,11.13
2023-10-14T22:02:50.734Z,12.60
2023-10-14T22:05:20.879Z,11.63
2023-10-14T22:07:48.802Z,8.48
2023-10-14T22:10:20.181Z,10.90
2023-10-14T22:12:53.596Z,10.75
2023-10-14T22:15:28.266Z,9.48
2023-10-14T22:17:56.594Z,14.70
2023-10-14T22:20:27.854Z,8.48
2023-10-14T22:25:25.400Z,14.35
2023-10-14T22:30:20.745Z,18.17
2023-10-14T22:32:48.145Z,15.07
2023-10-14T22:35:22.189Z,15.93
2023-10-14T22:37:53.705Z,12.50
2023-10-14T22:40:24.985Z,13.80
2023-10-14T22:42:52.285Z,6.90
2023-10-14T22:45:20.228Z,10.27
2023-10-14T22:47:48.246Z,12.75
2023-10-14T22:50:18.430Z,12.63
2023-10-14T22:52:48.817Z,5.97
2023-10-14T22:55:18.140Z,7.65
2023-10-14T22:57:48.524Z,7.60
2023-10-14T23:00:16.698Z,6.57
2023-10-14T23:02:47.675Z,15.23
2023-10-14T23:05:27.316Z,12.02
2023-10-14T23:07:59.557Z,9.15
2023-10-14T23:10:27.817Z,9.20
2023-10-14T23:12:54.525Z,8.05
2023-10-14T23:15:27.575Z,9.85
2023-10-14T23:17:54.454Z,12.70
2023-10-14T23:20:21.404Z,11.90
2023-10-14T23:22:48.044Z,14.07
2023-10-14T23:25:14.740Z,10.68
2023-10-14T23:27:42.585Z,15.88
2023-10-14T23:30:19.985Z,9.57
2023-10-14T23:32:48.806Z,8.02
2023-10-14T23:35:21.853Z,8.95
2023-10-14T23:37:49.283Z,9.82
2023-10-14T23:40:19.995Z,9.15
2023-10-14T23:42:47.452Z,11.95
2023-10-14T23:45:16.972Z,9.90
2023-10-14T23:47:44.580Z,8.38
2023-10-14T23:50:14.986Z,13.10
2023-10-14T23:52:50.421Z,8.23
2023-10-14T23:55:26.716Z,14.00
2023-10-14T23:57:57.441Z,14.23
